Terminal Aerodrome Forecast
Issued by NWS Topeka, KS

Home | Current Version | Previous Version | Graphics & Text | Print | Product List | Glossary On
Versions: 1 2 3 4 5 6 7 8 9 10 11 12 13 14 15
000
FTUS43 KTOP 201500 AAB
TAFTOP
TAF AMD
KTOP 201500Z 2015/2112 34010KT P6SM SCT025 SCT130
      TEMPO 2016/2018 BKN025
     FM210000 36007KT P6SM FEW250=

USA.gov is the U.S. government's official web portal to all federal, state and local government web resources and services.